createdAt,value
2022-11-25T00:01:33.965Z,3.75
2022-11-25T00:04:02.013Z,3.74
2022-11-25T00:06:32.748Z,3.72
2022-11-25T00:09:04.925Z,3.75
2022-11-25T00:11:36.023Z,3.76
2022-11-25T00:14:04.790Z,3.78
2022-11-25T00:16:32.396Z,3.85
2022-11-25T00:19:00.165Z,3.88
2022-11-25T00:21:31.705Z,3.91
2022-11-25T00:24:04.846Z,3.90
2022-11-25T00:26:33.981Z,3.89
2022-11-25T00:29:07.072Z,3.89
2022-11-25T00:31:38.393Z,3.92
2022-11-25T00:34:07.384Z,4.02
2022-11-25T00:36:36.981Z,4.08
2022-11-25T00:39:07.673Z,4.11
2022-11-25T00:41:53.751Z,4.16
2022-11-25T00:44:38.449Z,4.16
2022-11-25T00:47:14.266Z,4.17
2022-11-25T00:49:45.916Z,4.19
2022-11-25T00:52:25.274Z,4.22
2022-11-25T00:54:53.896Z,4.24
2022-11-25T00:57:23.540Z,4.27
2022-11-25T00:59:51.433Z,4.27
2022-11-25T01:02:22.019Z,4.29
2022-11-25T01:04:49.892Z,4.29
2022-11-25T01:07:18.374Z,4.34
2022-11-25T01:09:46.071Z,4.40
2022-11-25T01:12:13.601Z,4.43
2022-11-25T01:14:41.503Z,4.45
2022-11-25T01:17:09.001Z,4.49
2022-11-25T01:19:40.642Z,4.49
2022-11-25T01:22:09.630Z,4.51
2022-11-25T01:24:37.270Z,4.51
2022-11-25T01:27:05.169Z,4.54
2022-11-25T01:29:32.597Z,4.54
2022-11-25T01:32:00.223Z,4.55
2022-11-25T01:34:28.710Z,4.56
2022-11-25T01:36:58.287Z,4.59
2022-11-25T01:39:31.952Z,4.56
2022-11-25T01:42:00.788Z,4.52
2022-11-25T01:44:33.245Z,4.52
2022-11-25T01:47:24.597Z,4.53
2022-11-25T01:50:03.830Z,4.51
2022-11-25T01:52:39.842Z,4.50
2022-11-25T01:55:14.097Z,4.49
2022-11-25T01:57:50.869Z,4.47
2022-11-25T02:00:18.968Z,4.50
2022-11-25T02:02:50.374Z,4.49
2022-11-25T02:05:22.368Z,4.49
2022-11-25T02:07:53.313Z,4.49
2022-11-25T02:10:30.888Z,4.47
2022-11-25T02:12:59.653Z,4.41
2022-11-25T02:15:29.483Z,4.39
2022-11-25T02:17:57.508Z,4.35
2022-11-25T02:20:26.537Z,4.35
2022-11-25T02:23:18.131Z,4.36
2022-11-25T02:25:47.305Z,4.34
2022-11-25T02:28:24.120Z,4.36
2022-11-25T02:30:52.195Z,4.37
2022-11-25T02:33:20.791Z,4.39
2022-11-25T02:35:52.680Z,4.38
2022-11-25T02:38:51.371Z,4.43
2022-11-25T02:41:42.308Z,4.44
2022-11-25T02:44:10.046Z,4.44
2022-11-25T02:46:39.688Z,4.43
2022-11-25T02:49:09.218Z,4.45
2022-11-25T02:51:39.392Z,4.47
2022-11-25T02:54:06.960Z,4.47
2022-11-25T02:56:35.873Z,4.48
2022-11-25T02:59:04.247Z,4.47
2022-11-25T03:01:32.985Z,4.44
2022-11-25T03:04:00.601Z,4.42
2022-11-25T03:06:29.869Z,4.35
2022-11-25T03:08:58.137Z,4.36
2022-11-25T03:11:47.421Z,4.36
2022-11-25T03:14:16.187Z,4.36
2022-11-25T03:16:44.175Z,4.35
2022-11-25T03:19:12.177Z,4.33
2022-11-25T03:21:39.662Z,4.31
2022-11-25T03:24:08.071Z,4.31
2022-11-25T03:26:35.537Z,4.27
2022-11-25T03:29:03.017Z,4.25
2022-11-25T03:31:30.660Z,4.24
2022-11-25T03:33:58.192Z,4.20
2022-11-25T03:36:25.710Z,4.19
2022-11-25T03:38:53.186Z,4.13
2022-11-25T03:41:20.706Z,4.07
2022-11-25T03:43:49.098Z,3.97
2022-11-25T03:46:16.796Z,3.89
2022-11-25T03:48:44.508Z,3.83
2022-11-25T03:51:12.339Z,3.76
2022-11-25T03:53:39.961Z,3.70
2022-11-25T03:56:09.971Z,3.61
2022-11-25T03:58:37.554Z,3.65
2022-11-25T04:01:06.741Z,3.59
2022-11-25T04:03:34.650Z,3.53
2022-11-25T04:06:02.085Z,3.46
2022-11-25T04:08:31.091Z,3.40
2022-11-25T04:10:59.610Z,3.33
2022-11-25T04:13:30.753Z,3.23
2022-11-25T04:15:58.472Z,3.14
2022-11-25T04:18:26.771Z,3.06
2022-11-25T04:20:57.132Z,2.99
2022-11-25T04:23:24.721Z,2.94
2022-11-25T04:26:02.500Z,2.92
2022-11-25T04:28:41.188Z,2.88
2022-11-25T04:31:09.174Z,2.87
2022-11-25T04:33:39.832Z,2.82
2022-11-25T04:36:08.288Z,2.82
2022-11-25T04:38:36.031Z,2.79
2022-11-25T04:41:04.723Z,2.81
2022-11-25T04:43:37.641Z,2.84
2022-11-25T04:46:17.742Z,2.88
2022-11-25T04:48:49.612Z,2.91
2022-11-25T04:51:17.811Z,2.91
2022-11-25T04:53:47.521Z,2.89
2022-11-25T04:56:22.212Z,2.91
2022-11-25T04:59:11.518Z,2.93
2022-11-25T05:01:46.638Z,2.91
2022-11-25T05:04:30.170Z,2.85
2022-11-25T05:06:58.161Z,2.83
2022-11-25T05:09:26.302Z,2.85
2022-11-25T05:12:06.421Z,2.79
2022-11-25T05:14:35.901Z,2.79
2022-11-25T05:17:05.110Z,2.74
2022-11-25T05:19:33.351Z,2.72
2022-11-25T05:22:00.903Z,2.66
2022-11-25T05:24:28.575Z,2.64
2022-11-25T05:26:56.528Z,2.67
2022-11-25T05:29:24.182Z,2.65
2022-11-25T05:31:51.713Z,2.61
2022-11-25T05:34:19.533Z,2.59
2022-11-25T05:36:48.571Z,2.58
2022-11-25T05:39:16.259Z,2.55
2022-11-25T05:42:09.708Z,2.53
2022-11-25T05:44:39.838Z,2.51
2022-11-25T05:47:09.241Z,2.49
2022-11-25T05:49:36.892Z,2.44
2022-11-25T05:52:04.395Z,2.47
2022-11-25T05:54:37.644Z,2.49
2022-11-25T05:57:05.431Z,2.50
2022-11-25T05:59:40.843Z,2.51
2022-11-25T06:02:19.165Z,2.51
2022-11-25T06:04:46.932Z,2.51
2022-11-25T06:07:14.681Z,2.51
2022-11-25T06:09:42.603Z,2.50
2022-11-25T06:12:11.335Z,2.52
2022-11-25T06:14:45.883Z,2.53
2022-11-25T06:17:13.604Z,2.53
2022-11-25T06:20:08.871Z,2.53
2022-11-25T06:22:36.722Z,2.51
2022-11-25T06:25:04.916Z,2.49
2022-11-25T06:27:57.252Z,2.48
2022-11-25T06:30:23.879Z,2.45
2022-11-25T06:33:05.172Z,2.45
2022-11-25T06:35:33.594Z,2.47
2022-11-25T06:38:03.049Z,2.48
2022-11-25T06:40:30.581Z,2.50
2022-11-25T06:42:58.083Z,2.55
2022-11-25T06:45:25.602Z,2.59
2022-11-25T06:47:53.780Z,2.70
2022-11-25T06:50:21.362Z,2.93
2022-11-25T06:52:48.904Z,3.18
2022-11-25T06:55:16.431Z,3.46
2022-11-25T06:57:44.031Z,3.73
2022-11-25T07:00:11.880Z,4.01
2022-11-25T07:02:44.074Z,4.26
2022-11-25T07:05:12.872Z,4.47
2022-11-25T07:07:40.393Z,4.68
2022-11-25T07:10:08.603Z,4.90
2022-11-25T07:12:36.193Z,5.14
2022-11-25T07:15:04.082Z,5.28
2022-11-25T07:17:32.518Z,5.48
2022-11-25T07:19:59.963Z,5.63
2022-11-25T07:22:27.464Z,5.73
2022-11-25T07:24:55.082Z,5.87
2022-11-25T07:27:22.479Z,5.95
2022-11-25T07:30:10.113Z,6.08
2022-11-25T07:32:37.688Z,6.27
2022-11-25T07:35:05.660Z,6.32
2022-11-25T07:37:33.154Z,6.53
2022-11-25T07:40:00.657Z,6.54
2022-11-25T07:42:28.113Z,6.51
2022-11-25T07:44:55.704Z,6.53
2022-11-25T07:47:44.893Z,6.66
2022-11-25T07:50:12.362Z,6.74
2022-11-25T07:52:40.715Z,6.89
2022-11-25T07:55:08.843Z,6.83
2022-11-25T07:57:36.373Z,7.02
2022-11-25T08:00:05.138Z,7.09
2022-11-25T08:02:39.318Z,7.31
2022-11-25T08:05:07.434Z,7.50
2022-11-25T08:07:36.672Z,7.55
2022-11-25T08:10:04.803Z,7.51
2022-11-25T08:12:33.433Z,7.65
2022-11-25T08:15:00.941Z,7.53
2022-11-25T08:17:28.663Z,7.31
2022-11-25T08:19:56.354Z,7.38
2022-11-25T08:22:23.854Z,7.29
2022-11-25T08:24:51.424Z,7.25
2022-11-25T08:27:18.956Z,7.14
2022-11-25T08:29:46.582Z,7.10
2022-11-25T08:32:14.160Z,6.96
2022-11-25T08:34:43.144Z,6.87
2022-11-25T08:37:12.183Z,6.88
2022-11-25T08:39:55.318Z,6.96
2022-11-25T08:42:23.259Z,7.13
2022-11-25T08:44:55.945Z,7.10
2022-11-25T08:47:24.343Z,7.11
2022-11-25T08:49:55.364Z,7.16
2022-11-25T08:52:23.841Z,7.24
2022-11-25T08:54:51.314Z,7.26
2022-11-25T08:57:18.834Z,7.25
2022-11-25T08:59:46.620Z,7.26
2022-11-25T09:02:16.729Z,7.35
2022-11-25T09:04:44.838Z,7.48
2022-11-25T09:07:12.526Z,7.56
2022-11-25T09:09:40.260Z,7.67
2022-11-25T09:12:08.523Z,7.66
2022-11-25T09:14:36.121Z,7.85
2022-11-25T09:17:09.163Z,7.92
2022-11-25T09:19:36.998Z,8.09
2022-11-25T09:22:04.664Z,8.20
2022-11-25T09:24:32.205Z,8.17
2022-11-25T09:26:59.839Z,8.05
2022-11-25T09:29:27.976Z,7.85
2022-11-25T09:31:55.876Z,7.77
2022-11-25T09:34:23.463Z,7.73
2022-11-25T09:36:51.713Z,7.69
2022-11-25T09:39:19.336Z,7.69
2022-11-25T09:42:14.661Z,7.73
2022-11-25T09:45:36.917Z,7.77
2022-11-25T09:48:39.493Z,7.94
2022-11-25T09:51:12.966Z,8.17
2022-11-25T09:53:45.446Z,8.36
2022-11-25T09:56:28.312Z,8.58
2022-11-25T09:59:14.653Z,8.71
2022-11-25T10:01:50.860Z,8.80
2022-11-25T10:04:29.298Z,8.91
2022-11-25T10:07:02.903Z,8.94
2022-11-25T10:09:34.291Z,9.01
2022-11-25T10:12:11.339Z,9.06
2022-11-25T10:14:50.515Z,8.95
2022-11-25T10:17:38.529Z,9.13
2022-11-25T10:20:26.393Z,9.15
2022-11-25T10:23:02.084Z,9.23
2022-11-25T10:25:45.890Z,9.30
2022-11-25T10:28:21.394Z,9.32
2022-11-25T10:31:12.187Z,9.38
2022-11-25T10:33:45.181Z,9.47
2022-11-25T10:36:38.673Z,9.51
2022-11-25T10:39:29.343Z,9.49
2022-11-25T10:42:06.453Z,9.40
2022-11-25T10:44:37.190Z,9.48
2022-11-25T10:47:32.431Z,9.50
2022-11-25T10:50:16.073Z,9.59
2022-11-25T10:53:14.052Z,9.65
2022-11-25T10:56:03.761Z,9.59
2022-11-25T10:58:39.762Z,9.47
2022-11-25T11:01:18.178Z,9.37
2022-11-25T11:03:51.401Z,9.34
2022-11-25T11:06:40.028Z,9.36
2022-11-25T11:09:38.092Z,9.40
2022-11-25T11:12:26.062Z,9.44
2022-11-25T11:15:13.963Z,9.54
2022-11-25T11:17:41.676Z,9.45
2022-11-25T11:20:09.324Z,9.52
2022-11-25T11:22:45.683Z,9.63
2022-11-25T11:25:23.576Z,9.68
2022-11-25T11:27:51.359Z,9.73
2022-11-25T11:30:21.870Z,9.74
2022-11-25T11:32:59.579Z,9.80
2022-11-25T11:36:07.133Z,9.76
2022-11-25T11:39:15.999Z,9.69
2022-11-25T11:42:03.983Z,9.74
2022-11-25T11:44:53.162Z,9.85
2022-11-25T11:47:29.798Z,9.88
2022-11-25T11:49:57.314Z,9.87
2022-11-25T11:52:45.768Z,9.87
2022-11-25T11:55:22.382Z,9.84
2022-11-25T11:58:20.209Z,9.80
2022-11-25T12:01:05.853Z,9.82
2022-11-25T12:03:42.280Z,9.59
2022-11-25T12:06:12.443Z,9.33
2022-11-25T12:08:50.692Z,9.37
2022-11-25T12:11:25.624Z,9.42
2022-11-25T12:14:14.864Z,9.46
2022-11-25T12:16:53.211Z,9.43
2022-11-25T12:19:53.330Z,9.42
2022-11-25T12:22:41.068Z,9.30
2022-11-25T12:25:34.521Z,9.07
2022-11-25T12:28:13.222Z,8.96
2022-11-25T12:31:05.376Z,8.94
2022-11-25T12:33:57.044Z,8.94
2022-11-25T12:36:34.292Z,8.91
2022-11-25T12:39:20.167Z,8.82
2022-11-25T12:41:53.740Z,8.67
2022-11-25T12:44:27.432Z,8.49
2022-11-25T12:46:57.112Z,8.34
2022-11-25T12:49:46.984Z,8.24
2022-11-25T12:52:17.683Z,8.16
2022-11-25T12:54:56.913Z,8.12
2022-11-25T12:57:36.598Z,7.97
2022-11-25T13:00:43.549Z,7.93
2022-11-25T13:03:39.137Z,7.92
2022-11-25T13:06:45.584Z,7.93
2022-11-25T13:09:34.259Z,7.88
2022-11-25T13:12:38.772Z,7.76
2022-11-25T13:15:06.647Z,7.49
2022-11-25T13:17:40.569Z,7.38
2022-11-25T13:20:26.773Z,7.25
2022-11-25T13:23:07.929Z,7.11
2022-11-25T13:25:38.470Z,6.98
2022-11-25T13:28:29.561Z,6.95
2022-11-25T13:31:19.407Z,6.90
2022-11-25T13:33:47.177Z,6.75
2022-11-25T13:36:22.149Z,6.73
2022-11-25T13:38:49.687Z,6.62
2022-11-25T13:41:19.963Z,6.57
2022-11-25T13:44:19.083Z,6.48
2022-11-25T13:46:52.971Z,6.44
2022-11-25T13:49:26.443Z,6.40
2022-11-25T13:51:58.445Z,6.45
2022-11-25T13:54:33.762Z,6.46
2022-11-25T13:57:19.014Z,6.34
2022-11-25T13:59:46.472Z,6.30
2022-11-25T14:02:45.420Z,6.22
2022-11-25T14:05:28.712Z,6.08
2022-11-25T14:08:27.486Z,6.11
2022-11-25T14:11:10.202Z,6.12
2022-11-25T14:14:05.710Z,6.07
2022-11-25T14:16:42.383Z,6.05
2022-11-25T14:19:43.256Z,6.06
2022-11-25T14:22:11.113Z,6.08
2022-11-25T14:25:26.804Z,6.02
2022-11-25T14:28:09.122Z,5.99
2022-11-25T14:30:50.205Z,5.86
2022-11-25T14:33:34.812Z,5.75
2022-11-25T14:36:17.762Z,5.78
2022-11-25T14:38:59.913Z,5.70
2022-11-25T14:41:38.374Z,5.69
2022-11-25T14:44:12.897Z,5.70
2022-11-25T14:47:03.862Z,5.63
2022-11-25T14:49:55.335Z,5.61
2022-11-25T14:52:36.011Z,5.49
2022-11-25T14:55:06.109Z,5.46
2022-11-25T14:57:37.741Z,5.43
2022-11-25T15:00:09.923Z,5.42
2022-11-25T15:02:41.007Z,5.40
2022-11-25T15:05:08.481Z,5.37
2022-11-25T15:07:36.250Z,5.40
2022-11-25T15:10:04.113Z,5.38
2022-11-25T15:12:33.404Z,5.32
2022-11-25T15:15:01.386Z,5.24
2022-11-25T15:17:35.319Z,5.21
2022-11-25T15:20:12.622Z,5.17
2022-11-25T15:22:46.407Z,5.15
2022-11-25T15:25:15.321Z,5.08
2022-11-25T15:27:50.507Z,5.04
2022-11-25T15:30:26.743Z,5.04
2022-11-25T15:32:55.394Z,5.00
2022-11-25T15:35:25.259Z,4.96
2022-11-25T15:37:54.586Z,4.92
2022-11-25T15:40:43.175Z,4.86
2022-11-25T15:43:30.113Z,4.82
2022-11-25T15:46:03.408Z,4.78
2022-11-25T15:48:48.873Z,4.73
2022-11-25T15:51:22.442Z,4.72
2022-11-25T15:53:56.328Z,4.74
2022-11-25T15:56:26.201Z,4.68
2022-11-25T15:58:57.393Z,4.76
2022-11-25T16:01:30.385Z,4.74
2022-11-25T16:04:21.563Z,4.69
2022-11-25T16:06:57.861Z,4.67
2022-11-25T16:09:28.738Z,4.66
2022-11-25T16:12:05.529Z,4.67
2022-11-25T16:14:36.664Z,4.68
2022-11-25T16:17:10.494Z,4.69
2022-11-25T16:19:47.320Z,4.68
2022-11-25T16:22:20.413Z,4.61
2022-11-25T16:25:00.439Z,4.58
2022-11-25T16:27:31.447Z,4.57
2022-11-25T16:30:18.695Z,4.58
2022-11-25T16:32:46.324Z,4.62
2022-11-25T16:35:16.740Z,4.63
2022-11-25T16:37:48.795Z,4.63
2022-11-25T16:40:18.835Z,4.66
2022-11-25T16:42:48.541Z,4.69
2022-11-25T16:45:24.864Z,4.68
2022-11-25T16:47:52.539Z,4.67
2022-11-25T16:50:21.368Z,4.66
2022-11-25T16:52:49.897Z,4.68
2022-11-25T16:55:18.751Z,4.64
2022-11-25T16:57:47.192Z,4.64
2022-11-25T17:00:17.251Z,4.64
2022-11-25T17:02:45.215Z,4.63
2022-11-25T17:05:24.635Z,4.58
2022-11-25T17:07:52.733Z,4.60
2022-11-25T17:10:21.644Z,4.60
2022-11-25T17:12:50.321Z,4.60
2022-11-25T17:15:28.729Z,4.62
2022-11-25T17:17:56.461Z,4.58
2022-11-25T17:20:25.339Z,4.60
2022-11-25T17:22:53.842Z,4.65
2022-11-25T17:25:24.262Z,4.67
2022-11-25T17:27:52.044Z,4.71
2022-11-25T17:30:21.272Z,4.75
2022-11-25T17:32:53.706Z,4.81
2022-11-25T17:35:21.716Z,4.82
2022-11-25T17:37:49.593Z,4.88
2022-11-25T17:40:17.713Z,4.88
2022-11-25T17:42:48.965Z,4.90
2022-11-25T17:45:20.778Z,4.91
2022-11-25T17:47:49.467Z,4.94
2022-11-25T17:50:25.822Z,5.01
2022-11-25T17:52:53.481Z,5.05
2022-11-25T17:55:22.946Z,5.07
2022-11-25T17:57:50.783Z,5.10
2022-11-25T18:00:21.204Z,5.12
2022-11-25T18:02:49.914Z,5.11
2022-11-25T18:05:20.967Z,5.14
2022-11-25T18:07:48.692Z,5.14
2022-11-25T18:10:18.771Z,5.17
2022-11-25T18:12:48.653Z,5.15
2022-11-25T18:15:19.444Z,5.18
2022-11-25T18:17:47.533Z,5.18
2022-11-25T18:20:17.061Z,5.19
2022-11-25T18:22:45.733Z,5.18
2022-11-25T18:25:22.724Z,5.16
2022-11-25T18:27:54.353Z,5.18
2022-11-25T18:30:27.094Z,5.17
2022-11-25T18:32:56.379Z,5.20
2022-11-25T18:35:29.801Z,5.24
2022-11-25T18:38:00.601Z,5.29
2022-11-25T18:40:29.644Z,5.34
2022-11-25T18:43:00.566Z,5.37
2022-11-25T18:45:32.948Z,5.39
2022-11-25T18:48:00.705Z,5.43
2022-11-25T18:50:28.543Z,5.46
2022-11-25T18:52:56.112Z,5.48
2022-11-25T18:55:24.301Z,5.52
2022-11-25T18:57:52.650Z,5.53
2022-11-25T19:00:32.765Z,5.57
2022-11-25T19:03:01.312Z,5.58
2022-11-25T19:05:31.451Z,5.56
2022-11-25T19:07:59.096Z,5.56
2022-11-25T19:10:29.619Z,5.64
2022-11-25T19:13:03.181Z,5.64
2022-11-25T19:15:30.819Z,5.63
2022-11-25T19:18:02.073Z,5.61
2022-11-25T19:20:30.448Z,5.59
2022-11-25T19:23:01.062Z,5.59
2022-11-25T19:25:29.498Z,5.61
2022-11-25T19:28:00.137Z,5.64
2022-11-25T19:30:32.032Z,5.64
2022-11-25T19:33:02.086Z,5.63
2022-11-25T19:35:36.962Z,5.58
2022-11-25T19:38:25.176Z,5.58
2022-11-25T19:45:05.893Z,5.53
2022-11-25T19:47:33.414Z,5.53
2022-11-25T19:50:02.403Z,5.53
2022-11-25T19:52:37.885Z,5.53
2022-11-25T19:55:17.474Z,5.57
2022-11-25T19:57:45.335Z,5.54
2022-11-25T20:00:15.650Z,5.54
2022-11-25T20:02:44.440Z,5.57
2022-11-25T20:05:19.498Z,5.55
2022-11-25T20:07:47.532Z,5.58
2022-11-25T20:10:26.939Z,5.59
2022-11-25T20:12:55.995Z,5.60
2022-11-25T20:15:23.902Z,5.61
2022-11-25T20:17:55.250Z,5.61
2022-11-25T20:20:32.730Z,5.64
2022-11-25T20:23:05.364Z,5.66
2022-11-25T20:25:37.066Z,5.68
2022-11-25T20:28:10.222Z,5.68
2022-11-25T20:30:37.724Z,5.67
2022-11-25T20:33:05.183Z,5.68
2022-11-25T20:35:32.664Z,5.64
2022-11-25T20:38:01.044Z,5.68
2022-11-25T20:40:36.759Z,5.68
2022-11-25T20:43:04.293Z,5.67
2022-11-25T20:45:31.839Z,5.68
2022-11-25T20:47:59.395Z,5.71
2022-11-25T20:50:30.604Z,5.71
2022-11-25T20:52:58.083Z,5.74
2022-11-25T20:55:26.142Z,5.77
2022-11-25T20:57:53.553Z,5.71
2022-11-25T21:00:27.278Z,5.77
2022-11-25T21:02:57.161Z,5.74
2022-11-25T21:05:27.543Z,5.73
2022-11-25T21:07:55.461Z,5.67
2022-11-25T21:10:30.453Z,5.71
2022-11-25T21:12:57.947Z,5.73
2022-11-25T21:15:27.683Z,5.79
2022-11-25T21:17:55.383Z,5.69
2022-11-25T21:20:22.934Z,5.73
2022-11-25T21:22:54.344Z,5.73
2022-11-25T21:25:23.083Z,5.71
2022-11-25T21:27:52.164Z,5.73
2022-11-25T21:30:32.618Z,5.75
2022-11-25T21:33:01.245Z,5.75
2022-11-25T21:35:34.867Z,5.77
2022-11-25T21:38:03.940Z,5.78
2022-11-25T21:40:49.270Z,5.81
2022-11-25T21:43:21.565Z,5.82
2022-11-25T21:45:52.579Z,5.85
2022-11-25T21:48:25.280Z,5.80
2022-11-25T21:50:53.445Z,5.77
2022-11-25T21:53:20.900Z,5.81
2022-11-25T21:55:49.152Z,5.83
2022-11-25T21:58:24.813Z,5.82
2022-11-25T22:00:56.246Z,5.84
2022-11-25T22:03:25.454Z,5.79
2022-11-25T22:05:52.892Z,5.82
2022-11-25T22:08:20.619Z,5.79
2022-11-25T22:10:53.940Z,5.80
2022-11-25T22:13:27.433Z,5.81
2022-11-25T22:15:58.343Z,5.82
2022-11-25T22:18:31.514Z,5.88
2022-11-25T22:20:59.663Z,5.86
2022-11-25T22:23:27.859Z,5.83
2022-11-25T22:25:55.823Z,5.81
2022-11-25T22:28:26.585Z,5.81
2022-11-25T22:30:56.594Z,5.80
2022-11-25T22:33:32.313Z,5.74
2022-11-25T22:36:00.518Z,5.75
2022-11-25T22:38:29.310Z,5.73
2022-11-25T22:41:00.340Z,5.73
2022-11-25T22:43:32.191Z,5.75
2022-11-25T22:45:59.883Z,5.78
2022-11-25T22:48:32.293Z,5.77
2022-11-25T22:50:59.730Z,5.77
2022-11-25T22:53:27.644Z,5.78
2022-11-25T22:55:58.621Z,5.69
2022-11-25T22:58:26.839Z,5.73
2022-11-25T23:00:56.192Z,5.77
2022-11-25T23:03:29.417Z,5.77
2022-11-25T23:05:57.374Z,5.77
2022-11-25T23:08:28.484Z,5.76
2022-11-25T23:10:56.792Z,5.83
2022-11-25T23:13:24.869Z,5.83
2022-11-25T23:16:00.392Z,5.80
2022-11-25T23:18:38.636Z,5.78
2022-11-25T23:21:14.560Z,5.80
2022-11-25T23:23:42.054Z,5.81
2022-11-25T23:26:11.276Z,5.82
2022-11-25T23:28:38.681Z,5.80
2022-11-25T23:31:07.154Z,5.80
2022-11-25T23:33:46.523Z,5.77
2022-11-25T23:36:28.577Z,5.77
2022-11-25T23:39:02.311Z,5.77
2022-11-25T23:41:31.323Z,5.73
2022-11-25T23:44:13.987Z,5.74
2022-11-25T23:46:43.072Z,5.72
2022-11-25T23:49:21.662Z,5.69
2022-11-25T23:51:49.385Z,5.74
2022-11-25T23:54:21.114Z,5.70
2022-11-25T23:56:48.709Z,5.70
2022-11-25T23:59:17.434Z,5.76
